PHTO/ITO METAR and TAF weather

Enter ICAO airport designator
Station Type Date Time Source
PHTO METAR 2021/09/23 18:53 UTC NOAA

PHTO 231853Z 28003KT 10SM CLR 27/19 A3003 RMK AO2 SLP168 T02670194


Station Type Date Time Source
PHTO Decoded METAR 2021/09/23 18:53 UTC NOAA

HILO INTERNATIONAL AIRPORT, HI, United States (PHTO) 19-43N 155-03W 12M
Sep 23, 2021 - 02:53 PM EDT / 2021.09.23 1853 UTC
Wind: from the W (280 degrees) at 3 MPH (3 KT):0
Visibility: 10 mile(s):0
Sky conditions: clear
Temperature: 80.1 F (26.7 C)
Dew Point: 66.9 F (19.4 C)
Relative Humidity: 64%
Pressure (altimeter): 30.03 in. Hg (1016 hPa)
ob: PHTO 231853Z 28003KT 10SM CLR 27/19 A3003 RMK AO2 SLP168 T02670194
cycle: 19

Station Type Date Time Source
PHTO TAF 2021/09/23 18:27 UTC NOAA

TAF PHTO 231725Z 2318/2418 VRB05KT P6SM VCSH SCT030 BKN045
FM232100 05009KT P6SM SCT025 SCT045
FM240600 24005KT P6SM VCSH SCT025 BKN040

Example: see airport list